sensor_id;sensor_type;location;lat;lon;timestamp;P1;durP1;ratioP1;P2;durP2;ratioP2
10473;SDS011;5284;50.446;7.904;2024-03-22T00:03:40;36.13;;;19.08;;
10473;SDS011;5284;50.446;7.904;2024-03-22T00:08:45;41.47;;;16.70;;
10473;SDS011;5284;50.446;7.904;2024-03-22T00:13:48;33.97;;;16.33;;
10473;SDS011;5284;50.446;7.904;2024-03-22T00:18:50;42.35;;;16.67;;
10473;SDS011;5284;50.446;7.904;2024-03-22T00:23:54;36.80;;;17.08;;
10473;SDS011;5284;50.446;7.904;2024-03-22T00:28:57;44.03;;;17.75;;
10473;SDS011;5284;50.446;7.904;2024-03-22T00:33:59;43.33;;;17.15;;
10473;SDS011;5284;50.446;7.904;2024-03-22T00:39:03;42.67;;;17.80;;
10473;SDS011;5284;50.446;7.904;2024-03-22T00:44:05;47.67;;;16.60;;
10473;SDS011;5284;50.446;7.904;2024-03-22T00:49:07;38.03;;;15.48;;
10473;SDS011;5284;50.446;7.904;2024-03-22T00:54:11;37.97;;;16.60;;
10473;SDS011;5284;50.446;7.904;2024-03-22T00:59:13;40.65;;;16.38;;
10473;SDS011;5284;50.446;7.904;2024-03-22T01:04:15;33.63;;;15.90;;
10473;SDS011;5284;50.446;7.904;2024-03-22T01:09:18;41.63;;;16.70;;
10473;SDS011;5284;50.446;7.904;2024-03-22T01:14:20;37.83;;;16.85;;
10473;SDS011;5284;50.446;7.904;2024-03-22T01:19:22;38.35;;;15.05;;
10473;SDS011;5284;50.446;7.904;2024-03-22T01:24:26;42.13;;;15.43;;
10473;SDS011;5284;50.446;7.904;2024-03-22T01:29:28;34.55;;;14.73;;
10473;SDS011;5284;50.446;7.904;2024-03-22T01:34:33;35.92;;;16.05;;
10473;SDS011;5284;50.446;7.904;2024-03-22T01:39:37;44.97;;;16.85;;
10473;SDS011;5284;50.446;7.904;2024-03-22T01:44:39;43.83;;;18.35;;
10473;SDS011;5284;50.446;7.904;2024-03-22T01:49:41;32.03;;;15.65;;
10473;SDS011;5284;50.446;7.904;2024-03-22T01:54:45;39.97;;;17.42;;
10473;SDS011;5284;50.446;7.904;2024-03-22T01:59:47;44.22;;;16.90;;
10473;SDS011;5284;50.446;7.904;2024-03-22T02:04:53;53.63;;;17.40;;
10473;SDS011;5284;50.446;7.904;2024-03-22T02:09:57;47.63;;;19.73;;
10473;SDS011;5284;50.446;7.904;2024-03-22T02:14:59;41.65;;;18.15;;
10473;SDS011;5284;50.446;7.904;2024-03-22T02:20:01;48.03;;;17.20;;
10473;SDS011;5284;50.446;7.904;2024-03-22T02:25:06;42.95;;;16.92;;
10473;SDS011;5284;50.446;7.904;2024-03-22T02:30:09;39.28;;;15.68;;
10473;SDS011;5284;50.446;7.904;2024-03-22T02:35:12;46.05;;;17.73;;
10473;SDS011;5284;50.446;7.904;2024-03-22T02:40:17;39.92;;;16.65;;
10473;SDS011;5284;50.446;7.904;2024-03-22T02:45:18;42.42;;;17.02;;
10473;SDS011;5284;50.446;7.904;2024-03-22T02:50:20;42.20;;;15.70;;
10473;SDS011;5284;50.446;7.904;2024-03-22T02:55:25;42.47;;;17.83;;
10473;SDS011;5284;50.446;7.904;2024-03-22T03:00:27;47.25;;;18.75;;
10473;SDS011;5284;50.446;7.904;2024-03-22T03:05:29;47.28;;;16.92;;
10473;SDS011;5284;50.446;7.904;2024-03-22T03:10:33;50.03;;;19.85;;
10473;SDS011;5284;50.446;7.904;2024-03-22T03:15:35;41.22;;;16.50;;
10473;SDS011;5284;50.446;7.904;2024-03-22T03:20:37;46.55;;;17.67;;
10473;SDS011;5284;50.446;7.904;2024-03-22T03:25:41;43.42;;;18.10;;
10473;SDS011;5284;50.446;7.904;2024-03-22T03:30:44;41.78;;;17.50;;
10473;SDS011;5284;50.446;7.904;2024-03-22T03:35:46;48.22;;;17.90;;
10473;SDS011;5284;50.446;7.904;2024-03-22T03:40:49;39.90;;;15.68;;
10473;SDS011;5284;50.446;7.904;2024-03-22T03:45:52;37.10;;;15.25;;
10473;SDS011;5284;50.446;7.904;2024-03-22T03:50:55;42.10;;;15.70;;
10473;SDS011;5284;50.446;7.904;2024-03-22T03:56:04;44.85;;;17.10;;
10473;SDS011;5284;50.446;7.904;2024-03-22T04:01:06;43.55;;;17.25;;
10473;SDS011;5284;50.446;7.904;2024-03-22T04:06:08;47.90;;;17.45;;
10473;SDS011;5284;50.446;7.904;2024-03-22T04:11:12;44.63;;;18.13;;
10473;SDS011;5284;50.446;7.904;2024-03-22T04:16:14;48.85;;;19.17;;
10473;SDS011;5284;50.446;7.904;2024-03-22T04:21:16;46.03;;;21.20;;
10473;SDS011;5284;50.446;7.904;2024-03-22T04:26:20;52.92;;;18.83;;
10473;SDS011;5284;50.446;7.904;2024-03-22T04:31:23;49.13;;;19.50;;
10473;SDS011;5284;50.446;7.904;2024-03-22T04:36:26;66.93;;;19.17;;
10473;SDS011;5284;50.446;7.904;2024-03-22T04:41:29;52.25;;;18.52;;
10473;SDS011;5284;50.446;7.904;2024-03-22T04:46:32;51.38;;;17.83;;
10473;SDS011;5284;50.446;7.904;2024-03-22T04:51:34;51.38;;;18.95;;
10473;SDS011;5284;50.446;7.904;2024-03-22T04:56:38;46.33;;;18.95;;
10473;SDS011;5284;50.446;7.904;2024-03-22T05:01:41;44.92;;;18.38;;
10473;SDS011;5284;50.446;7.904;2024-03-22T05:06:45;60.15;;;19.52;;
10473;SDS011;5284;50.446;7.904;2024-03-22T05:11:48;52.13;;;19.17;;
10473;SDS011;5284;50.446;7.904;2024-03-22T05:16:51;58.10;;;19.58;;
10473;SDS011;5284;50.446;7.904;2024-03-22T05:21:53;53.10;;;19.23;;
10473;SDS011;5284;50.446;7.904;2024-03-22T05:26:57;62.65;;;19.30;;
10473;SDS011;5284;50.446;7.904;2024-03-22T05:32:00;48.60;;;19.25;;
10473;SDS011;5284;50.446;7.904;2024-03-22T05:37:04;45.78;;;18.77;;
10473;SDS011;5284;50.446;7.904;2024-03-22T05:42:08;47.05;;;19.23;;
10473;SDS011;5284;50.446;7.904;2024-03-22T05:47:12;49.85;;;19.25;;
10473;SDS011;5284;50.446;7.904;2024-03-22T05:52:14;53.47;;;19.80;;
10473;SDS011;5284;50.446;7.904;2024-03-22T05:57:19;50.13;;;18.63;;
10473;SDS011;5284;50.446;7.904;2024-03-22T06:02:21;55.33;;;18.25;;
10473;SDS011;5284;50.446;7.904;2024-03-22T06:07:26;48.45;;;19.65;;
10473;SDS011;5284;50.446;7.904;2024-03-22T06:12:29;57.95;;;20.02;;
10473;SDS011;5284;50.446;7.904;2024-03-22T06:17:31;46.95;;;18.58;;
10473;SDS011;5284;50.446;7.904;2024-03-22T06:22:34;45.28;;;17.58;;
10473;SDS011;5284;50.446;7.904;2024-03-22T06:27:38;46.80;;;18.38;;
10473;SDS011;5284;50.446;7.904;2024-03-22T06:32:41;61.05;;;19.52;;
10473;SDS011;5284;50.446;7.904;2024-03-22T06:37:43;87.35;;;26.10;;
10473;SDS011;5284;50.446;7.904;2024-03-22T06:42:47;96.70;;;26.52;;
10473;SDS011;5284;50.446;7.904;2024-03-22T06:47:49;77.35;;;24.95;;
10473;SDS011;5284;50.446;7.904;2024-03-22T06:52:51;138.55;;;40.72;;
10473;SDS011;5284;50.446;7.904;2024-03-22T06:57:55;41.55;;;14.55;;
10473;SDS011;5284;50.446;7.904;2024-03-22T07:02:59;44.75;;;13.77;;
10473;SDS011;5284;50.446;7.904;2024-03-22T07:08:02;73.60;;;29.50;;
10473;SDS011;5284;50.446;7.904;2024-03-22T07:13:06;49.40;;;14.48;;
10473;SDS011;5284;50.446;7.904;2024-03-22T07:18:08;37.90;;;16.80;;
10473;SDS011;5284;50.446;7.904;2024-03-22T07:23:11;25.98;;;12.32;;
10473;SDS011;5284;50.446;7.904;2024-03-22T07:28:16;31.20;;;10.48;;
10473;SDS011;5284;50.446;7.904;2024-03-22T07:33:18;22.85;;;10.65;;
10473;SDS011;5284;50.446;7.904;2024-03-22T07:38:20;25.48;;;8.23;;
10473;SDS011;5284;50.446;7.904;2024-03-22T07:43:24;19.77;;;7.82;;
10473;SDS011;5284;50.446;7.904;2024-03-22T07:48:26;22.75;;;7.05;;
10473;SDS011;5284;50.446;7.904;2024-03-22T07:53:28;19.80;;;7.30;;
10473;SDS011;5284;50.446;7.904;2024-03-22T07:58:31;14.80;;;6.22;;
10473;SDS011;5284;50.446;7.904;2024-03-22T08:03:33;22.88;;;7.15;;
10473;SDS011;5284;50.446;7.904;2024-03-22T08:08:35;17.77;;;6.07;;
10473;SDS011;5284;50.446;7.904;2024-03-22T08:13:40;9.93;;;5.10;;
10473;SDS011;5284;50.446;7.904;2024-03-22T08:18:42;10.15;;;4.63;;
10473;SDS011;5284;50.446;7.904;2024-03-22T08:23:44;11.65;;;4.90;;
10473;SDS011;5284;50.446;7.904;2024-03-22T08:28:48;12.75;;;4.70;;
10473;SDS011;5284;50.446;7.904;2024-03-22T08:33:50;12.60;;;4.57;;
10473;SDS011;5284;50.446;7.904;2024-03-22T08:38:52;46.92;;;13.25;;
10473;SDS011;5284;50.446;7.904;2024-03-22T08:43:56;13.50;;;4.22;;
10473;SDS011;5284;50.446;7.904;2024-03-22T08:48:58;14.25;;;4.45;;
10473;SDS011;5284;50.446;7.904;2024-03-22T08:54:01;17.23;;;4.65;;
10473;SDS011;5284;50.446;7.904;2024-03-22T08:59:05;9.85;;;3.75;;
10473;SDS011;5284;50.446;7.904;2024-03-22T09:04:09;17.02;;;4.38;;
10473;SDS011;5284;50.446;7.904;2024-03-22T09:09:11;11.18;;;5.00;;
10473;SDS011;5284;50.446;7.904;2024-03-22T09:14:15;14.32;;;5.65;;
10473;SDS011;5284;50.446;7.904;2024-03-22T09:19:17;17.55;;;6.18;;
10473;SDS011;5284;50.446;7.904;2024-03-22T09:24:20;16.42;;;7.38;;
10473;SDS011;5284;50.446;7.904;2024-03-22T09:29:24;13.88;;;7.78;;
10473;SDS011;5284;50.446;7.904;2024-03-22T09:34:26;20.27;;;9.52;;
10473;SDS011;5284;50.446;7.904;2024-03-22T09:39:28;20.38;;;10.10;;
10473;SDS011;5284;50.446;7.904;2024-03-22T09:44:34;19.33;;;9.10;;
10473;SDS011;5284;50.446;7.904;2024-03-22T09:49:40;24.35;;;11.15;;
10473;SDS011;5284;50.446;7.904;2024-03-22T09:54:46;21.13;;;9.77;;
10473;SDS011;5284;50.446;7.904;2024-03-22T09:59:53;25.48;;;10.68;;
10473;SDS011;5284;50.446;7.904;2024-03-22T10:04:56;18.92;;;9.68;;
10473;SDS011;5284;50.446;7.904;2024-03-22T10:09:58;25.45;;;10.57;;
10473;SDS011;5284;50.446;7.904;2024-03-22T10:15:04;23.42;;;9.57;;
10473;SDS011;5284;50.446;7.904;2024-03-22T10:20:12;27.30;;;9.15;;
10473;SDS011;5284;50.446;7.904;2024-03-22T10:25:15;25.92;;;9.27;;
10473;SDS011;5284;50.446;7.904;2024-03-22T10:30:18;20.85;;;9.30;;
10473;SDS011;5284;50.446;7.904;2024-03-22T10:35:20;27.05;;;9.05;;
10473;SDS011;5284;50.446;7.904;2024-03-22T10:40:24;28.25;;;9.90;;
10473;SDS011;5284;50.446;7.904;2024-03-22T10:45:31;27.40;;;10.57;;
10473;SDS011;5284;50.446;7.904;2024-03-22T10:50:34;18.98;;;9.68;;
10473;SDS011;5284;50.446;7.904;2024-03-22T10:55:41;22.80;;;10.25;;
10473;SDS011;5284;50.446;7.904;2024-03-22T11:00:47;20.73;;;9.80;;
10473;SDS011;5284;50.446;7.904;2024-03-22T11:05:53;26.95;;;10.38;;
10473;SDS011;5284;50.446;7.904;2024-03-22T11:10:56;19.25;;;9.50;;
10473;SDS011;5284;50.446;7.904;2024-03-22T11:16:00;20.65;;;10.88;;
10473;SDS011;5284;50.446;7.904;2024-03-22T11:21:05;22.42;;;10.43;;
10473;SDS011;5284;50.446;7.904;2024-03-22T11:26:09;24.40;;;10.57;;
10473;SDS011;5284;50.446;7.904;2024-03-22T11:31:13;19.70;;;9.45;;
10473;SDS011;5284;50.446;7.904;2024-03-22T11:36:17;24.83;;;8.73;;
10473;SDS011;5284;50.446;7.904;2024-03-22T11:41:20;21.35;;;8.68;;
10473;SDS011;5284;50.446;7.904;2024-03-22T11:46:28;21.42;;;8.85;;
10473;SDS011;5284;50.446;7.904;2024-03-22T11:51:30;30.40;;;11.63;;
10473;SDS011;5284;50.446;7.904;2024-03-22T11:56:39;23.58;;;9.95;;
10473;SDS011;5284;50.446;7.904;2024-03-22T12:01:42;24.52;;;10.27;;
10473;SDS011;5284;50.446;7.904;2024-03-22T12:06:45;26.65;;;12.02;;
10473;SDS011;5284;50.446;7.904;2024-03-22T12:11:47;31.55;;;10.50;;
10473;SDS011;5284;50.446;7.904;2024-03-22T12:16:56;22.67;;;9.45;;
10473;SDS011;5284;50.446;7.904;2024-03-22T12:21:58;25.23;;;10.77;;
10473;SDS011;5284;50.446;7.904;2024-03-22T12:27:00;21.65;;;9.20;;
10473;SDS011;5284;50.446;7.904;2024-03-22T12:32:05;26.33;;;11.57;;
10473;SDS011;5284;50.446;7.904;2024-03-22T12:37:09;20.88;;;9.88;;
10473;SDS011;5284;50.446;7.904;2024-03-22T12:42:11;24.77;;;11.30;;
10473;SDS011;5284;50.446;7.904;2024-03-22T12:47:16;30.10;;;11.60;;
10473;SDS011;5284;50.446;7.904;2024-03-22T12:52:18;22.73;;;10.90;;
10473;SDS011;5284;50.446;7.904;2024-03-22T12:57:20;19.30;;;9.13;;
10473;SDS011;5284;50.446;7.904;2024-03-22T13:02:24;24.20;;;11.50;;
10473;SDS011;5284;50.446;7.904;2024-03-22T13:07:26;31.17;;;12.15;;
10473;SDS011;5284;50.446;7.904;2024-03-22T13:12:29;21.80;;;9.98;;
10473;SDS011;5284;50.446;7.904;2024-03-22T13:17:35;22.20;;;10.05;;
10473;SDS011;5284;50.446;7.904;2024-03-22T13:22:38;23.25;;;9.70;;
10473;SDS011;5284;50.446;7.904;2024-03-22T13:27:41;16.02;;;8.07;;
10473;SDS011;5284;50.446;7.904;2024-03-22T13:32:44;19.00;;;7.75;;
10473;SDS011;5284;50.446;7.904;2024-03-22T13:37:47;16.92;;;8.30;;
10473;SDS011;5284;50.446;7.904;2024-03-22T13:42:52;18.52;;;7.40;;
10473;SDS011;5284;50.446;7.904;2024-03-22T13:47:55;16.95;;;7.38;;
10473;SDS011;5284;50.446;7.904;2024-03-22T13:53:02;13.27;;;7.15;;
10473;SDS011;5284;50.446;7.904;2024-03-22T13:58:04;18.35;;;7.45;;
10473;SDS011;5284;50.446;7.904;2024-03-22T14:03:08;14.88;;;6.25;;
10473;SDS011;5284;50.446;7.904;2024-03-22T14:08:10;16.33;;;6.65;;
10473;SDS011;5284;50.446;7.904;2024-03-22T14:13:12;22.42;;;6.85;;
10473;SDS011;5284;50.446;7.904;2024-03-22T14:18:17;12.25;;;5.80;;
10473;SDS011;5284;50.446;7.904;2024-03-22T14:23:19;16.73;;;6.80;;
10473;SDS011;5284;50.446;7.904;2024-03-22T14:28:21;11.00;;;5.25;;
10473;SDS011;5284;50.446;7.904;2024-03-22T14:33:25;14.18;;;5.32;;
10473;SDS011;5284;50.446;7.904;2024-03-22T14:38:27;14.13;;;5.20;;
10473;SDS011;5284;50.446;7.904;2024-03-22T14:43:29;8.10;;;3.75;;
10473;SDS011;5284;50.446;7.904;2024-03-22T14:48:36;10.43;;;4.20;;
10473;SDS011;5284;50.446;7.904;2024-03-22T14:53:38;13.25;;;4.50;;
10473;SDS011;5284;50.446;7.904;2024-03-22T14:58:40;15.45;;;4.03;;
10473;SDS011;5284;50.446;7.904;2024-03-22T15:03:45;11.43;;;3.80;;
10473;SDS011;5284;50.446;7.904;2024-03-22T15:08:47;13.07;;;4.45;;
10473;SDS011;5284;50.446;7.904;2024-03-22T15:13:50;8.63;;;3.63;;
10473;SDS011;5284;50.446;7.904;2024-03-22T15:18:53;13.32;;;4.35;;
10473;SDS011;5284;50.446;7.904;2024-03-22T15:23:57;9.25;;;3.25;;
10473;SDS011;5284;50.446;7.904;2024-03-22T15:28:59;9.43;;;4.28;;
10473;SDS011;5284;50.446;7.904;2024-03-22T15:34:02;9.32;;;3.47;;
10473;SDS011;5284;50.446;7.904;2024-03-22T15:39:06;9.23;;;4.43;;
10473;SDS011;5284;50.446;7.904;2024-03-22T15:44:08;10.82;;;4.47;;
10473;SDS011;5284;50.446;7.904;2024-03-22T15:49:12;13.02;;;4.47;;
10473;SDS011;5284;50.446;7.904;2024-03-22T15:54:14;13.57;;;5.10;;
10473;SDS011;5284;50.446;7.904;2024-03-22T15:59:16;13.35;;;6.50;;
10473;SDS011;5284;50.446;7.904;2024-03-22T16:04:19;11.63;;;6.80;;
10473;SDS011;5284;50.446;7.904;2024-03-22T16:09:21;16.42;;;5.40;;
10473;SDS011;5284;50.446;7.904;2024-03-22T16:14:24;9.55;;;4.95;;
10473;SDS011;5284;50.446;7.904;2024-03-22T16:19:27;11.48;;;4.93;;
10473;SDS011;5284;50.446;7.904;2024-03-22T16:24:31;17.48;;;8.43;;
10473;SDS011;5284;50.446;7.904;2024-03-22T16:29:34;8.82;;;4.82;;
10473;SDS011;5284;50.446;7.904;2024-03-22T16:34:37;13.60;;;4.57;;
10473;SDS011;5284;50.446;7.904;2024-03-22T16:39:40;25.80;;;8.90;;
10473;SDS011;5284;50.446;7.904;2024-03-22T16:44:42;26.20;;;10.55;;
10473;SDS011;5284;50.446;7.904;2024-03-22T16:49:45;11.68;;;4.70;;
10473;SDS011;5284;50.446;7.904;2024-03-22T16:54:47;11.18;;;4.97;;
10473;SDS011;5284;50.446;7.904;2024-03-22T16:59:49;14.18;;;4.60;;
10473;SDS011;5284;50.446;7.904;2024-03-22T17:04:53;10.35;;;4.75;;
10473;SDS011;5284;50.446;7.904;2024-03-22T17:09:56;9.07;;;4.13;;
10473;SDS011;5284;50.446;7.904;2024-03-22T17:14:58;9.90;;;4.75;;
10473;SDS011;5284;50.446;7.904;2024-03-22T17:20:03;13.65;;;5.05;;
10473;SDS011;5284;50.446;7.904;2024-03-22T17:25:08;14.60;;;5.87;;
10473;SDS011;5284;50.446;7.904;2024-03-22T17:30:11;16.08;;;5.75;;
10473;SDS011;5284;50.446;7.904;2024-03-22T17:35:15;15.32;;;5.15;;
10473;SDS011;5284;50.446;7.904;2024-03-22T17:40:19;13.13;;;4.90;;
10473;SDS011;5284;50.446;7.904;2024-03-22T17:45:21;17.85;;;6.00;;
10473;SDS011;5284;50.446;7.904;2024-03-22T17:50:24;15.25;;;5.55;;
10473;SDS011;5284;50.446;7.904;2024-03-22T17:55:26;17.92;;;6.78;;
10473;SDS011;5284;50.446;7.904;2024-03-22T18:00:28;20.63;;;7.05;;
10473;SDS011;5284;50.446;7.904;2024-03-22T18:05:31;9.27;;;4.53;;
10473;SDS011;5284;50.446;7.904;2024-03-22T18:10:34;14.55;;;5.63;;
10473;SDS011;5284;50.446;7.904;2024-03-22T18:15:39;13.32;;;5.10;;
10473;SDS011;5284;50.446;7.904;2024-03-22T18:20:42;13.70;;;5.25;;
10473;SDS011;5284;50.446;7.904;2024-03-22T18:25:45;13.80;;;4.35;;
10473;SDS011;5284;50.446;7.904;2024-03-22T18:30:49;9.27;;;3.38;;
10473;SDS011;5284;50.446;7.904;2024-03-22T18:35:52;9.10;;;3.92;;
10473;SDS011;5284;50.446;7.904;2024-03-22T18:40:54;6.20;;;3.60;;
10473;SDS011;5284;50.446;7.904;2024-03-22T18:45:56;14.80;;;5.10;;
10473;SDS011;5284;50.446;7.904;2024-03-22T18:50:59;18.20;;;7.15;;
10473;SDS011;5284;50.446;7.904;2024-03-22T18:56:01;12.98;;;7.30;;
10473;SDS011;5284;50.446;7.904;2024-03-22T19:01:04;16.67;;;7.50;;
10473;SDS011;5284;50.446;7.904;2024-03-22T19:06:09;20.60;;;6.18;;
10473;SDS011;5284;50.446;7.904;2024-03-22T19:11:12;17.00;;;7.03;;
10473;SDS011;5284;50.446;7.904;2024-03-22T19:16:15;19.30;;;7.07;;
10473;SDS011;5284;50.446;7.904;2024-03-22T19:21:18;14.73;;;6.88;;
10473;SDS011;5284;50.446;7.904;2024-03-22T19:26:24;15.00;;;6.90;;
10473;SDS011;5284;50.446;7.904;2024-03-22T19:31:26;15.55;;;7.38;;
10473;SDS011;5284;50.446;7.904;2024-03-22T19:36:29;14.88;;;7.13;;
10473;SDS011;5284;50.446;7.904;2024-03-22T19:41:31;13.93;;;7.10;;
10473;SDS011;5284;50.446;7.904;2024-03-22T19:46:34;18.95;;;8.25;;
10473;SDS011;5284;50.446;7.904;2024-03-22T19:51:38;22.90;;;9.57;;
10473;SDS011;5284;50.446;7.904;2024-03-22T19:56:41;23.88;;;9.93;;
10473;SDS011;5284;50.446;7.904;2024-03-22T20:01:46;25.30;;;10.38;;
10473;SDS011;5284;50.446;7.904;2024-03-22T20:06:50;30.50;;;13.30;;
10473;SDS011;5284;50.446;7.904;2024-03-22T20:11:52;48.53;;;14.90;;
10473;SDS011;5284;50.446;7.904;2024-03-22T20:16:55;44.50;;;16.48;;
10473;SDS011;5284;50.446;7.904;2024-03-22T20:21:58;52.33;;;19.65;;
10473;SDS011;5284;50.446;7.904;2024-03-22T20:27:00;66.25;;;21.48;;
10473;SDS011;5284;50.446;7.904;2024-03-22T20:32:06;68.75;;;27.65;;
10473;SDS011;5284;50.446;7.904;2024-03-22T20:37:10;57.65;;;25.25;;
